sensor_id;sensor_type;location;lat;lon;timestamp;P1;durP1;ratioP1;P2;durP2;ratioP2
2488;SDS011;1255;48.716;9.124;2023-04-19T00:02:24;10.27;;;5.85;;
2488;SDS011;1255;48.716;9.124;2023-04-19T00:04:52;5.97;;;5.38;;
2488;SDS011;1255;48.716;9.124;2023-04-19T00:07:20;8.88;;;6.25;;
2488;SDS011;1255;48.716;9.124;2023-04-19T00:09:46;7.25;;;5.50;;
2488;SDS011;1255;48.716;9.124;2023-04-19T00:12:13;7.20;;;6.03;;
2488;SDS011;1255;48.716;9.124;2023-04-19T00:14:40;7.32;;;5.70;;
2488;SDS011;1255;48.716;9.124;2023-04-19T00:17:07;7.30;;;5.82;;
2488;SDS011;1255;48.716;9.124;2023-04-19T00:19:36;8.00;;;6.07;;
2488;SDS011;1255;48.716;9.124;2023-04-19T00:22:03;7.53;;;5.00;;
2488;SDS011;1255;48.716;9.124;2023-04-19T00:24:30;13.10;;;6.55;;
2488;SDS011;1255;48.716;9.124;2023-04-19T00:26:57;7.53;;;5.15;;
2488;SDS011;1255;48.716;9.124;2023-04-19T00:29:24;9.10;;;6.57;;
2488;SDS011;1255;48.716;9.124;2023-04-19T00:31:51;5.60;;;5.03;;
2488;SDS011;1255;48.716;9.124;2023-04-19T00:34:17;6.25;;;5.18;;
2488;SDS011;1255;48.716;9.124;2023-04-19T00:36:45;7.90;;;6.22;;
2488;SDS011;1255;48.716;9.124;2023-04-19T00:39:12;6.80;;;5.53;;
2488;SDS011;1255;48.716;9.124;2023-04-19T00:41:39;7.55;;;5.90;;
2488;SDS011;1255;48.716;9.124;2023-04-19T00:44:06;9.45;;;6.70;;
2488;SDS011;1255;48.716;9.124;2023-04-19T00:46:35;8.60;;;5.75;;
2488;SDS011;1255;48.716;9.124;2023-04-19T00:49:02;8.80;;;5.63;;
2488;SDS011;1255;48.716;9.124;2023-04-19T00:51:29;6.97;;;5.60;;
2488;SDS011;1255;48.716;9.124;2023-04-19T00:53:57;7.68;;;6.30;;
2488;SDS011;1255;48.716;9.124;2023-04-19T00:56:24;8.93;;;5.20;;
2488;SDS011;1255;48.716;9.124;2023-04-19T00:58:52;6.32;;;5.35;;
2488;SDS011;1255;48.716;9.124;2023-04-19T01:01:19;6.05;;;4.85;;
2488;SDS011;1255;48.716;9.124;2023-04-19T01:03:46;7.72;;;5.57;;
2488;SDS011;1255;48.716;9.124;2023-04-19T01:06:13;11.30;;;5.80;;
2488;SDS011;1255;48.716;9.124;2023-04-19T01:08:40;7.70;;;5.72;;
2488;SDS011;1255;48.716;9.124;2023-04-19T01:11:08;9.73;;;6.65;;
2488;SDS011;1255;48.716;9.124;2023-04-19T01:13:35;7.07;;;5.13;;
2488;SDS011;1255;48.716;9.124;2023-04-19T01:16:02;8.70;;;6.43;;
2488;SDS011;1255;48.716;9.124;2023-04-19T01:18:28;7.25;;;6.43;;
2488;SDS011;1255;48.716;9.124;2023-04-19T01:21:01;7.95;;;5.63;;
2488;SDS011;1255;48.716;9.124;2023-04-19T01:23:29;9.77;;;5.80;;
2488;SDS011;1255;48.716;9.124;2023-04-19T01:25:56;6.68;;;4.88;;
2488;SDS011;1255;48.716;9.124;2023-04-19T01:28:22;8.38;;;6.43;;
2488;SDS011;1255;48.716;9.124;2023-04-19T01:30:49;9.80;;;5.97;;
2488;SDS011;1255;48.716;9.124;2023-04-19T01:33:17;6.57;;;5.72;;
2488;SDS011;1255;48.716;9.124;2023-04-19T01:35:45;8.90;;;5.85;;
2488;SDS011;1255;48.716;9.124;2023-04-19T01:38:12;7.18;;;5.90;;
2488;SDS011;1255;48.716;9.124;2023-04-19T01:40:40;9.15;;;6.35;;
2488;SDS011;1255;48.716;9.124;2023-04-19T01:43:07;6.95;;;5.10;;
2488;SDS011;1255;48.716;9.124;2023-04-19T01:45:35;6.10;;;5.50;;
2488;SDS011;1255;48.716;9.124;2023-04-19T01:48:02;8.85;;;6.88;;
2488;SDS011;1255;48.716;9.124;2023-04-19T01:50:29;7.55;;;5.55;;
2488;SDS011;1255;48.716;9.124;2023-04-19T01:52:56;10.45;;;6.72;;
2488;SDS011;1255;48.716;9.124;2023-04-19T01:55:23;8.55;;;6.00;;
2488;SDS011;1255;48.716;9.124;2023-04-19T01:57:51;6.63;;;5.88;;
2488;SDS011;1255;48.716;9.124;2023-04-19T02:00:18;9.55;;;5.90;;
2488;SDS011;1255;48.716;9.124;2023-04-19T02:02:45;9.27;;;6.35;;
2488;SDS011;1255;48.716;9.124;2023-04-19T02:05:12;8.95;;;6.90;;
2488;SDS011;1255;48.716;9.124;2023-04-19T02:07:39;10.27;;;6.43;;
2488;SDS011;1255;48.716;9.124;2023-04-19T02:10:08;10.52;;;6.45;;
2488;SDS011;1255;48.716;9.124;2023-04-19T02:12:35;9.05;;;6.70;;
2488;SDS011;1255;48.716;9.124;2023-04-19T02:15:04;8.82;;;6.72;;
2488;SDS011;1255;48.716;9.124;2023-04-19T02:17:31;10.10;;;6.90;;
2488;SDS011;1255;48.716;9.124;2023-04-19T02:19:58;7.60;;;5.80;;
2488;SDS011;1255;48.716;9.124;2023-04-19T02:22:24;10.82;;;7.45;;
2488;SDS011;1255;48.716;9.124;2023-04-19T02:24:51;8.45;;;6.25;;
2488;SDS011;1255;48.716;9.124;2023-04-19T02:27:18;8.77;;;6.40;;
2488;SDS011;1255;48.716;9.124;2023-04-19T02:29:44;9.20;;;6.80;;
2488;SDS011;1255;48.716;9.124;2023-04-19T02:32:12;12.30;;;7.60;;
2488;SDS011;1255;48.716;9.124;2023-04-19T02:34:39;10.07;;;7.40;;
2488;SDS011;1255;48.716;9.124;2023-04-19T02:37:06;9.00;;;7.03;;
2488;SDS011;1255;48.716;9.124;2023-04-19T02:39:33;12.20;;;7.40;;
2488;SDS011;1255;48.716;9.124;2023-04-19T02:41:59;9.77;;;7.00;;
2488;SDS011;1255;48.716;9.124;2023-04-19T02:44:26;7.95;;;6.20;;
2488;SDS011;1255;48.716;9.124;2023-04-19T02:46:53;9.60;;;7.13;;
2488;SDS011;1255;48.716;9.124;2023-04-19T02:49:22;8.52;;;6.10;;
2488;SDS011;1255;48.716;9.124;2023-04-19T02:51:49;11.07;;;6.70;;
2488;SDS011;1255;48.716;9.124;2023-04-19T02:54:17;9.20;;;6.70;;
2488;SDS011;1255;48.716;9.124;2023-04-19T02:56:43;12.43;;;7.75;;
2488;SDS011;1255;48.716;9.124;2023-04-19T02:59:10;8.63;;;7.00;;
2488;SDS011;1255;48.716;9.124;2023-04-19T03:01:37;10.07;;;7.07;;
2488;SDS011;1255;48.716;9.124;2023-04-19T03:04:04;7.80;;;7.00;;
2488;SDS011;1255;48.716;9.124;2023-04-19T03:06:32;10.50;;;6.40;;
2488;SDS011;1255;48.716;9.124;2023-04-19T03:08:58;9.73;;;6.60;;
2488;SDS011;1255;48.716;9.124;2023-04-19T03:11:25;12.23;;;8.18;;
2488;SDS011;1255;48.716;9.124;2023-04-19T03:13:52;8.73;;;6.93;;
2488;SDS011;1255;48.716;9.124;2023-04-19T03:16:19;8.38;;;6.78;;
2488;SDS011;1255;48.716;9.124;2023-04-19T03:18:45;9.60;;;7.78;;
2488;SDS011;1255;48.716;9.124;2023-04-19T03:21:12;11.43;;;7.63;;
2488;SDS011;1255;48.716;9.124;2023-04-19T03:23:40;8.93;;;6.07;;
2488;SDS011;1255;48.716;9.124;2023-04-19T03:26:07;11.68;;;6.75;;
2488;SDS011;1255;48.716;9.124;2023-04-19T03:28:34;10.32;;;6.57;;
2488;SDS011;1255;48.716;9.124;2023-04-19T03:31:00;11.32;;;8.05;;
2488;SDS011;1255;48.716;9.124;2023-04-19T03:33:27;10.50;;;6.82;;
2488;SDS011;1255;48.716;9.124;2023-04-19T03:35:54;12.15;;;8.52;;
2488;SDS011;1255;48.716;9.124;2023-04-19T03:38:20;10.50;;;7.65;;
2488;SDS011;1255;48.716;9.124;2023-04-19T03:40:48;10.77;;;7.60;;
2488;SDS011;1255;48.716;9.124;2023-04-19T03:43:15;11.95;;;7.68;;
2488;SDS011;1255;48.716;9.124;2023-04-19T03:45:42;7.30;;;6.50;;
2488;SDS011;1255;48.716;9.124;2023-04-19T03:48:09;12.38;;;7.05;;
2488;SDS011;1255;48.716;9.124;2023-04-19T03:50:35;10.68;;;8.05;;
2488;SDS011;1255;48.716;9.124;2023-04-19T03:53:02;9.80;;;7.20;;
2488;SDS011;1255;48.716;9.124;2023-04-19T03:55:29;11.73;;;7.65;;
2488;SDS011;1255;48.716;9.124;2023-04-19T03:57:57;11.02;;;7.85;;
2488;SDS011;1255;48.716;9.124;2023-04-19T04:00:24;9.98;;;7.43;;
2488;SDS011;1255;48.716;9.124;2023-04-19T04:02:51;9.38;;;7.85;;
2488;SDS011;1255;48.716;9.124;2023-04-19T04:05:18;10.70;;;7.45;;
2488;SDS011;1255;48.716;9.124;2023-04-19T04:07:45;13.52;;;7.10;;
2488;SDS011;1255;48.716;9.124;2023-04-19T04:10:11;11.05;;;7.07;;
2488;SDS011;1255;48.716;9.124;2023-04-19T04:12:38;8.63;;;6.60;;
2488;SDS011;1255;48.716;9.124;2023-04-19T04:15:07;9.98;;;7.90;;
2488;SDS011;1255;48.716;9.124;2023-04-19T04:17:35;10.38;;;7.75;;
2488;SDS011;1255;48.716;9.124;2023-04-19T04:20:01;12.27;;;7.10;;
2488;SDS011;1255;48.716;9.124;2023-04-19T04:22:29;8.63;;;7.13;;
2488;SDS011;1255;48.716;9.124;2023-04-19T04:24:56;13.32;;;9.73;;
2488;SDS011;1255;48.716;9.124;2023-04-19T04:27:25;12.00;;;8.07;;
2488;SDS011;1255;48.716;9.124;2023-04-19T04:29:52;12.48;;;7.78;;
2488;SDS011;1255;48.716;9.124;2023-04-19T04:32:20;11.20;;;7.65;;
2488;SDS011;1255;48.716;9.124;2023-04-19T04:34:47;9.90;;;7.28;;
2488;SDS011;1255;48.716;9.124;2023-04-19T04:37:13;13.93;;;8.60;;
2488;SDS011;1255;48.716;9.124;2023-04-19T04:39:41;8.90;;;6.47;;
2488;SDS011;1255;48.716;9.124;2023-04-19T04:42:08;11.10;;;8.88;;
2488;SDS011;1255;48.716;9.124;2023-04-19T04:44:36;9.50;;;7.10;;
2488;SDS011;1255;48.716;9.124;2023-04-19T04:47:03;10.50;;;8.38;;
2488;SDS011;1255;48.716;9.124;2023-04-19T04:49:32;11.82;;;8.85;;
2488;SDS011;1255;48.716;9.124;2023-04-19T04:51:59;11.43;;;7.85;;
2488;SDS011;1255;48.716;9.124;2023-04-19T04:54:25;10.00;;;7.07;;
2488;SDS011;1255;48.716;9.124;2023-04-19T04:56:52;8.73;;;7.43;;
2488;SDS011;1255;48.716;9.124;2023-04-19T04:59:19;9.70;;;7.20;;
2488;SDS011;1255;48.716;9.124;2023-04-19T05:01:45;12.88;;;7.28;;
2488;SDS011;1255;48.716;9.124;2023-04-19T05:04:12;12.65;;;7.55;;
2488;SDS011;1255;48.716;9.124;2023-04-19T05:06:40;10.82;;;7.38;;
2488;SDS011;1255;48.716;9.124;2023-04-19T05:09:08;12.15;;;7.55;;
2488;SDS011;1255;48.716;9.124;2023-04-19T05:11:35;9.60;;;7.95;;
2488;SDS011;1255;48.716;9.124;2023-04-19T05:14:02;9.65;;;7.63;;
2488;SDS011;1255;48.716;9.124;2023-04-19T05:16:29;11.20;;;7.47;;
2488;SDS011;1255;48.716;9.124;2023-04-19T05:18:55;10.60;;;7.68;;
2488;SDS011;1255;48.716;9.124;2023-04-19T05:21:22;10.65;;;7.05;;
2488;SDS011;1255;48.716;9.124;2023-04-19T05:23:50;12.88;;;7.43;;
2488;SDS011;1255;48.716;9.124;2023-04-19T05:26:18;9.00;;;6.85;;
2488;SDS011;1255;48.716;9.124;2023-04-19T05:28:45;10.20;;;7.63;;
2488;SDS011;1255;48.716;9.124;2023-04-19T05:31:12;10.55;;;7.72;;
2488;SDS011;1255;48.716;9.124;2023-04-19T05:33:39;10.23;;;7.47;;
2488;SDS011;1255;48.716;9.124;2023-04-19T05:36:06;10.75;;;7.65;;
2488;SDS011;1255;48.716;9.124;2023-04-19T05:38:33;10.77;;;8.40;;
2488;SDS011;1255;48.716;9.124;2023-04-19T05:41:01;12.85;;;8.05;;
2488;SDS011;1255;48.716;9.124;2023-04-19T05:43:28;13.38;;;8.00;;
2488;SDS011;1255;48.716;9.124;2023-04-19T05:45:55;12.13;;;7.90;;
2488;SDS011;1255;48.716;9.124;2023-04-19T05:48:21;13.80;;;8.25;;
2488;SDS011;1255;48.716;9.124;2023-04-19T05:50:49;11.80;;;8.60;;
2488;SDS011;1255;48.716;9.124;2023-04-19T05:53:16;12.68;;;7.68;;
2488;SDS011;1255;48.716;9.124;2023-04-19T05:55:43;14.65;;;7.95;;
2488;SDS011;1255;48.716;9.124;2023-04-19T05:58:13;10.65;;;8.38;;
2488;SDS011;1255;48.716;9.124;2023-04-19T06:00:40;11.60;;;7.35;;
2488;SDS011;1255;48.716;9.124;2023-04-19T06:03:07;13.85;;;7.90;;
2488;SDS011;1255;48.716;9.124;2023-04-19T06:05:34;14.02;;;8.52;;
2488;SDS011;1255;48.716;9.124;2023-04-19T06:08:01;12.40;;;8.60;;
2488;SDS011;1255;48.716;9.124;2023-04-19T06:10:28;12.05;;;7.82;;
2488;SDS011;1255;48.716;9.124;2023-04-19T06:12:55;10.23;;;8.13;;
2488;SDS011;1255;48.716;9.124;2023-04-19T06:15:23;10.15;;;7.88;;
2488;SDS011;1255;48.716;9.124;2023-04-19T06:17:51;11.10;;;7.70;;
2488;SDS011;1255;48.716;9.124;2023-04-19T06:20:17;12.77;;;8.10;;
2488;SDS011;1255;48.716;9.124;2023-04-19T06:22:44;12.73;;;6.63;;
2488;SDS011;1255;48.716;9.124;2023-04-19T06:25:11;9.23;;;7.10;;
2488;SDS011;1255;48.716;9.124;2023-04-19T06:27:39;10.05;;;7.60;;
2488;SDS011;1255;48.716;9.124;2023-04-19T06:30:06;9.40;;;6.90;;
2488;SDS011;1255;48.716;9.124;2023-04-19T06:32:34;12.88;;;8.90;;
2488;SDS011;1255;48.716;9.124;2023-04-19T06:35:01;10.98;;;7.40;;
2488;SDS011;1255;48.716;9.124;2023-04-19T06:37:28;11.75;;;8.02;;
2488;SDS011;1255;48.716;9.124;2023-04-19T06:39:55;13.00;;;7.55;;
2488;SDS011;1255;48.716;9.124;2023-04-19T06:42:22;14.73;;;8.68;;
2488;SDS011;1255;48.716;9.124;2023-04-19T06:44:49;13.60;;;8.48;;
2488;SDS011;1255;48.716;9.124;2023-04-19T06:47:16;9.85;;;7.60;;
2488;SDS011;1255;48.716;9.124;2023-04-19T06:49:44;10.98;;;8.35;;
2488;SDS011;1255;48.716;9.124;2023-04-19T06:52:11;11.63;;;7.78;;
2488;SDS011;1255;48.716;9.124;2023-04-19T06:54:38;10.45;;;7.78;;
2488;SDS011;1255;48.716;9.124;2023-04-19T06:57:04;9.55;;;7.47;;
2488;SDS011;1255;48.716;9.124;2023-04-19T06:59:31;12.60;;;8.32;;
2488;SDS011;1255;48.716;9.124;2023-04-19T07:01:59;10.80;;;6.82;;
2488;SDS011;1255;48.716;9.124;2023-04-19T07:04:25;9.57;;;6.85;;
2488;SDS011;1255;48.716;9.124;2023-04-19T07:06:54;10.68;;;7.38;;
2488;SDS011;1255;48.716;9.124;2023-04-19T07:09:20;9.90;;;7.97;;
2488;SDS011;1255;48.716;9.124;2023-04-19T07:11:47;9.82;;;6.90;;
2488;SDS011;1255;48.716;9.124;2023-04-19T07:14:15;10.20;;;7.30;;
2488;SDS011;1255;48.716;9.124;2023-04-19T07:16:43;8.32;;;6.53;;
2488;SDS011;1255;48.716;9.124;2023-04-19T07:19:10;13.10;;;7.90;;
2488;SDS011;1255;48.716;9.124;2023-04-19T07:21:36;8.57;;;6.68;;
2488;SDS011;1255;48.716;9.124;2023-04-19T07:24:05;8.65;;;7.50;;
2488;SDS011;1255;48.716;9.124;2023-04-19T07:26:32;15.32;;;8.52;;
2488;SDS011;1255;48.716;9.124;2023-04-19T07:28:59;12.95;;;9.45;;
2488;SDS011;1255;48.716;9.124;2023-04-19T07:31:26;10.68;;;7.65;;
2488;SDS011;1255;48.716;9.124;2023-04-19T07:33:53;11.85;;;7.72;;
2488;SDS011;1255;48.716;9.124;2023-04-19T07:36:20;11.27;;;7.85;;
2488;SDS011;1255;48.716;9.124;2023-04-19T07:38:47;8.35;;;6.38;;
2488;SDS011;1255;48.716;9.124;2023-04-19T07:41:15;12.63;;;8.20;;
2488;SDS011;1255;48.716;9.124;2023-04-19T07:43:42;10.07;;;7.25;;
2488;SDS011;1255;48.716;9.124;2023-04-19T07:46:08;9.35;;;7.57;;
2488;SDS011;1255;48.716;9.124;2023-04-19T07:48:36;9.15;;;6.32;;
2488;SDS011;1255;48.716;9.124;2023-04-19T07:51:07;8.02;;;6.53;;
2488;SDS011;1255;48.716;9.124;2023-04-19T07:53:34;10.43;;;7.32;;
2488;SDS011;1255;48.716;9.124;2023-04-19T07:56:01;8.88;;;6.88;;
2488;SDS011;1255;48.716;9.124;2023-04-19T07:58:29;9.82;;;7.32;;
2488;SDS011;1255;48.716;9.124;2023-04-19T08:00:56;10.00;;;7.20;;
2488;SDS011;1255;48.716;9.124;2023-04-19T08:03:23;10.90;;;7.05;;
2488;SDS011;1255;48.716;9.124;2023-04-19T08:05:50;8.20;;;7.00;;
2488;SDS011;1255;48.716;9.124;2023-04-19T08:08:16;9.13;;;7.03;;
2488;SDS011;1255;48.716;9.124;2023-04-19T08:10:43;8.25;;;6.78;;
2488;SDS011;1255;48.716;9.124;2023-04-19T08:13:10;9.48;;;7.00;;
2488;SDS011;1255;48.716;9.124;2023-04-19T08:15:38;8.55;;;6.22;;
2488;SDS011;1255;48.716;9.124;2023-04-19T08:18:05;11.43;;;7.20;;
2488;SDS011;1255;48.716;9.124;2023-04-19T08:20:31;8.43;;;6.95;;
2488;SDS011;1255;48.716;9.124;2023-04-19T08:22:58;8.75;;;5.93;;
2488;SDS011;1255;48.716;9.124;2023-04-19T08:25:26;8.50;;;6.03;;
2488;SDS011;1255;48.716;9.124;2023-04-19T08:27:52;7.03;;;5.63;;
2488;SDS011;1255;48.716;9.124;2023-04-19T08:30:21;6.87;;;6.07;;
2488;SDS011;1255;48.716;9.124;2023-04-19T08:32:49;6.97;;;5.83;;
2488;SDS011;1255;48.716;9.124;2023-04-19T08:35:16;8.40;;;5.83;;
2488;SDS011;1255;48.716;9.124;2023-04-19T08:37:43;8.47;;;6.83;;
2488;SDS011;1255;48.716;9.124;2023-04-19T08:40:10;7.20;;;5.47;;
2488;SDS011;1255;48.716;9.124;2023-04-19T08:45:05;7.40;;;6.23;;
2488;SDS011;1255;48.716;9.124;2023-04-19T08:47:32;8.33;;;6.20;;
2488;SDS011;1255;48.716;9.124;2023-04-19T08:50:02;8.57;;;6.67;;
2488;SDS011;1255;48.716;9.124;2023-04-19T08:52:30;7.32;;;5.53;;
2488;SDS011;1255;48.716;9.124;2023-04-19T08:55:00;7.77;;;5.23;;
2488;SDS011;1255;48.716;9.124;2023-04-19T08:57:29;6.37;;;5.17;;
2488;SDS011;1255;48.716;9.124;2023-04-19T08:59:56;5.83;;;5.23;;
2488;SDS011;1255;48.716;9.124;2023-04-19T09:02:23;5.93;;;5.20;;
2488;SDS011;1255;48.716;9.124;2023-04-19T09:04:50;7.60;;;5.50;;
2488;SDS011;1255;48.716;9.124;2023-04-19T09:07:25;5.93;;;4.47;;
2488;SDS011;1255;48.716;9.124;2023-04-19T09:10:03;5.23;;;4.57;;
2488;SDS011;1255;48.716;9.124;2023-04-19T09:12:31;7.57;;;5.33;;
2488;SDS011;1255;48.716;9.124;2023-04-19T09:14:59;6.43;;;5.10;;
2488;SDS011;1255;48.716;9.124;2023-04-19T09:17:26;5.83;;;5.10;;
2488;SDS011;1255;48.716;9.124;2023-04-19T09:19:53;7.83;;;4.87;;
2488;SDS011;1255;48.716;9.124;2023-04-19T09:22:20;6.30;;;5.33;;
2488;SDS011;1255;48.716;9.124;2023-04-19T09:24:48;5.53;;;4.87;;
2488;SDS011;1255;48.716;9.124;2023-04-19T09:27:18;7.78;;;5.20;;
2488;SDS011;1255;48.716;9.124;2023-04-19T09:29:52;6.00;;;4.83;;
2488;SDS011;1255;48.716;9.124;2023-04-19T09:32:20;5.37;;;4.67;;
2488;SDS011;1255;48.716;9.124;2023-04-19T09:34:50;8.57;;;5.40;;
2488;SDS011;1255;48.716;9.124;2023-04-19T09:37:18;7.70;;;6.10;;
2488;SDS011;1255;48.716;9.124;2023-04-19T09:39:45;7.37;;;5.03;;
2488;SDS011;1255;48.716;9.124;2023-04-19T09:42:13;6.87;;;5.77;;
2488;SDS011;1255;48.716;9.124;2023-04-19T09:44:41;6.70;;;4.33;;
2488;SDS011;1255;48.716;9.124;2023-04-19T09:47:20;6.20;;;5.23;;
2488;SDS011;1255;48.716;9.124;2023-04-19T09:50:02;7.90;;;5.00;;
2488;SDS011;1255;48.716;9.124;2023-04-19T09:52:32;5.70;;;4.70;;
2488;SDS011;1255;48.716;9.124;2023-04-19T09:55:00;12.20;;;6.07;;
2488;SDS011;1255;48.716;9.124;2023-04-19T09:57:29;6.17;;;5.27;;
2488;SDS011;1255;48.716;9.124;2023-04-19T09:59:57;6.13;;;5.23;;
2488;SDS011;1255;48.716;9.124;2023-04-19T10:02:24;7.63;;;5.97;;
2488;SDS011;1255;48.716;9.124;2023-04-19T10:04:55;6.37;;;5.20;;
2488;SDS011;1255;48.716;9.124;2023-04-19T10:07:23;6.60;;;5.40;;
2488;SDS011;1255;48.716;9.124;2023-04-19T10:09:50;6.00;;;5.40;;
2488;SDS011;1255;48.716;9.124;2023-04-19T10:12:20;7.30;;;5.70;;
2488;SDS011;1255;48.716;9.124;2023-04-19T10:14:53;6.63;;;5.70;;
2488;SDS011;1255;48.716;9.124;2023-04-19T10:17:21;7.37;;;6.10;;
2488;SDS011;1255;48.716;9.124;2023-04-19T10:19:50;7.43;;;5.37;;
2488;SDS011;1255;48.716;9.124;2023-04-19T10:22:22;7.33;;;5.53;;
2488;SDS011;1255;48.716;9.124;2023-04-19T10:25:09;5.50;;;4.87;;
2488;SDS011;1255;48.716;9.124;2023-04-19T10:27:37;7.10;;;5.27;;
2488;SDS011;1255;48.716;9.124;2023-04-19T10:30:06;6.10;;;4.80;;
2488;SDS011;1255;48.716;9.124;2023-04-19T10:32:43;6.33;;;5.67;;
2488;SDS011;1255;48.716;9.124;2023-04-19T10:35:16;7.80;;;6.10;;
2488;SDS011;1255;48.716;9.124;2023-04-19T10:38:01;7.00;;;5.60;;
2488;SDS011;1255;48.716;9.124;2023-04-19T10:43:25;6.00;;;4.90;;
2488;SDS011;1255;48.716;9.124;2023-04-19T10:45:54;5.90;;;5.00;;
2488;SDS011;1255;48.716;9.124;2023-04-19T10:48:31;5.20;;;4.70;;
2488;SDS011;1255;48.716;9.124;2023-04-19T10:51:03;5.23;;;4.53;;
2488;SDS011;1255;48.716;9.124;2023-04-19T10:53:42;6.80;;;4.97;;
2488;SDS011;1255;48.716;9.124;2023-04-19T10:56:10;7.30;;;6.03;;
2488;SDS011;1255;48.716;9.124;2023-04-19T11:01:49;6.20;;;5.60;;
2488;SDS011;1255;48.716;9.124;2023-04-19T11:04:17;5.97;;;5.13;;
2488;SDS011;1255;48.716;9.124;2023-04-19T11:09:39;6.43;;;5.80;;
2488;SDS011;1255;48.716;9.124;2023-04-19T11:12:10;6.57;;;5.33;;
2488;SDS011;1255;48.716;9.124;2023-04-19T11:14:39;5.17;;;4.67;;
2488;SDS011;1255;48.716;9.124;2023-04-19T11:17:14;5.90;;;5.30;;
2488;SDS011;1255;48.716;9.124;2023-04-19T11:19:42;5.40;;;4.90;;
2488;SDS011;1255;48.716;9.124;2023-04-19T11:22:10;5.57;;;4.93;;
2488;SDS011;1255;48.716;9.124;2023-04-19T11:24:36;6.23;;;5.60;;
2488;SDS011;1255;48.716;9.124;2023-04-19T11:27:06;6.20;;;5.17;;
2488;SDS011;1255;48.716;9.124;2023-04-19T11:29:33;5.60;;;4.77;;
2488;SDS011;1255;48.716;9.124;2023-04-19T11:32:00;7.60;;;6.00;;
2488;SDS011;1255;48.716;9.124;2023-04-19T11:34:28;11.97;;;6.33;;
2488;SDS011;1255;48.716;9.124;2023-04-19T11:36:55;8.57;;;6.30;;
2488;SDS011;1255;48.716;9.124;2023-04-19T11:39:22;7.77;;;5.20;;
2488;SDS011;1255;48.716;9.124;2023-04-19T11:41:48;7.20;;;5.70;;
2488;SDS011;1255;48.716;9.124;2023-04-19T11:44:15;6.73;;;5.10;;
2488;SDS011;1255;48.716;9.124;2023-04-19T11:46:56;6.13;;;5.20;;
2488;SDS011;1255;48.716;9.124;2023-04-19T11:49:29;8.53;;;5.33;;
2488;SDS011;1255;48.716;9.124;2023-04-19T11:51:58;8.07;;;5.93;;
2488;SDS011;1255;48.716;9.124;2023-04-19T11:54:26;7.50;;;6.37;;
2488;SDS011;1255;48.716;9.124;2023-04-19T11:57:00;6.03;;;4.70;;
2488;SDS011;1255;48.716;9.124;2023-04-19T11:59:29;5.90;;;5.30;;
2488;SDS011;1255;48.716;9.124;2023-04-19T12:02:04;8.87;;;6.13;;
2488;SDS011;1255;48.716;9.124;2023-04-19T12:04:34;6.68;;;5.90;;
2488;SDS011;1255;48.716;9.124;2023-04-19T12:07:01;6.72;;;5.40;;
2488;SDS011;1255;48.716;9.124;2023-04-19T12:09:31;7.82;;;6.03;;
2488;SDS011;1255;48.716;9.124;2023-04-19T12:11:59;9.35;;;6.50;;
2488;SDS011;1255;48.716;9.124;2023-04-19T12:14:27;7.25;;;5.30;;
2488;SDS011;1255;48.716;9.124;2023-04-19T12:17:05;7.10;;;5.60;;
2488;SDS011;1255;48.716;9.124;2023-04-19T12:19:35;7.43;;;5.88;;
2488;SDS011;1255;48.716;9.124;2023-04-19T12:22:09;10.07;;;7.63;;
2488;SDS011;1255;48.716;9.124;2023-04-19T12:24:37;9.13;;;6.93;;
2488;SDS011;1255;48.716;9.124;2023-04-19T12:27:05;7.63;;;6.25;;
2488;SDS011;1255;48.716;9.124;2023-04-19T12:29:32;9.07;;;8.00;;
2488;SDS011;1255;48.716;9.124;2023-04-19T12:31:59;9.45;;;6.60;;
2488;SDS011;1255;48.716;9.124;2023-04-19T12:34:26;9.75;;;7.20;;
2488;SDS011;1255;48.716;9.124;2023-04-19T12:36:55;9.45;;;7.20;;
2488;SDS011;1255;48.716;9.124;2023-04-19T12:39:25;10.30;;;7.38;;
2488;SDS011;1255;48.716;9.124;2023-04-19T12:41:52;10.55;;;7.15;;
2488;SDS011;1255;48.716;9.124;2023-04-19T12:44:19;16.80;;;8.18;;
2488;SDS011;1255;48.716;9.124;2023-04-19T12:46:46;9.48;;;7.18;;
2488;SDS011;1255;48.716;9.124;2023-04-19T12:49:13;9.25;;;6.85;;
2488;SDS011;1255;48.716;9.124;2023-04-19T12:51:42;12.57;;;8.07;;
2488;SDS011;1255;48.716;9.124;2023-04-19T12:54:13;11.57;;;8.15;;
2488;SDS011;1255;48.716;9.124;2023-04-19T12:56:40;10.52;;;7.20;;
2488;SDS011;1255;48.716;9.124;2023-04-19T12:59:07;12.63;;;8.40;;
2488;SDS011;1255;48.716;9.124;2023-04-19T13:01:34;11.05;;;8.65;;
2488;SDS011;1255;48.716;9.124;2023-04-19T13:04:00;11.88;;;8.98;;
2488;SDS011;1255;48.716;9.124;2023-04-19T13:06:27;10.65;;;8.27;;
2488;SDS011;1255;48.716;9.124;2023-04-19T13:08:55;13.60;;;9.32;;
2488;SDS011;1255;48.716;9.124;2023-04-19T13:11:24;13.45;;;9.80;;
2488;SDS011;1255;48.716;9.124;2023-04-19T13:13:54;17.33;;;8.93;;
2488;SDS011;1255;48.716;9.124;2023-04-19T13:16:20;12.13;;;7.80;;
2488;SDS011;1255;48.716;9.124;2023-04-19T13:18:48;12.55;;;8.60;;
2488;SDS011;1255;48.716;9.124;2023-04-19T13:21:16;12.15;;;8.85;;
2488;SDS011;1255;48.716;9.124;2023-04-19T13:23:47;15.35;;;9.10;;
2488;SDS011;1255;48.716;9.124;2023-04-19T13:26:14;14.48;;;9.20;;
2488;SDS011;1255;48.716;9.124;2023-04-19T13:28:43;11.65;;;8.57;;
2488;SDS011;1255;48.716;9.124;2023-04-19T13:31:10;14.48;;;9.13;;
2488;SDS011;1255;48.716;9.124;2023-04-19T13:33:37;14.57;;;9.52;;
2488;SDS011;1255;48.716;9.124;2023-04-19T13:36:06;14.77;;;8.52;;
2488;SDS011;1255;48.716;9.124;2023-04-19T13:38:33;15.38;;;8.73;;
2488;SDS011;1255;48.716;9.124;2023-04-19T13:41:01;13.65;;;7.63;;
2488;SDS011;1255;48.716;9.124;2023-04-19T13:43:28;12.05;;;7.70;;
2488;SDS011;1255;48.716;9.124;2023-04-19T13:45:57;10.60;;;7.70;;
2488;SDS011;1255;48.716;9.124;2023-04-19T13:48:24;11.40;;;7.38;;
2488;SDS011;1255;48.716;9.124;2023-04-19T13:50:53;11.50;;;7.75;;
2488;SDS011;1255;48.716;9.124;2023-04-19T13:53:20;9.85;;;7.03;;
2488;SDS011;1255;48.716;9.124;2023-04-19T13:55:47;10.63;;;8.60;;
2488;SDS011;1255;48.716;9.124;2023-04-19T13:58:14;9.50;;;7.28;;
2488;SDS011;1255;48.716;9.124;2023-04-19T14:00:41;13.13;;;7.75;;
2488;SDS011;1255;48.716;9.124;2023-04-19T14:03:09;8.85;;;6.35;;
2488;SDS011;1255;48.716;9.124;2023-04-19T14:05:36;10.20;;;7.15;;
2488;SDS011;1255;48.716;9.124;2023-04-19T14:08:03;10.48;;;7.60;;
2488;SDS011;1255;48.716;9.124;2023-04-19T14:10:30;10.73;;;7.38;;
2488;SDS011;1255;48.716;9.124;2023-04-19T14:12:57;7.22;;;6.47;;
2488;SDS011;1255;48.716;9.124;2023-04-19T14:15:24;8.65;;;6.30;;
2488;SDS011;1255;48.716;9.124;2023-04-19T14:17:51;8.35;;;5.75;;
2488;SDS011;1255;48.716;9.124;2023-04-19T14:20:20;10.00;;;6.80;;
2488;SDS011;1255;48.716;9.124;2023-04-19T14:22:46;12.73;;;7.15;;
2488;SDS011;1255;48.716;9.124;2023-04-19T14:25:13;9.85;;;6.60;;
2488;SDS011;1255;48.716;9.124;2023-04-19T14:27:42;8.90;;;7.15;;
2488;SDS011;1255;48.716;9.124;2023-04-19T14:30:09;9.70;;;7.10;;
2488;SDS011;1255;48.716;9.124;2023-04-19T14:32:36;8.90;;;6.47;;
2488;SDS011;1255;48.716;9.124;2023-04-19T14:35:03;8.23;;;6.30;;
2488;SDS011;1255;48.716;9.124;2023-04-19T14:37:33;8.80;;;6.50;;
2488;SDS011;1255;48.716;9.124;2023-04-19T14:40:00;11.98;;;7.30;;
2488;SDS011;1255;48.716;9.124;2023-04-19T14:42:31;12.00;;;6.75;;
2488;SDS011;1255;48.716;9.124;2023-04-19T14:44:58;12.80;;;7.93;;
2488;SDS011;1255;48.716;9.124;2023-04-19T14:47:25;8.70;;;5.45;;
2488;SDS011;1255;48.716;9.124;2023-04-19T14:49:58;9.45;;;7.30;;
2488;SDS011;1255;48.716;9.124;2023-04-19T14:52:27;8.75;;;6.65;;
2488;SDS011;1255;48.716;9.124;2023-04-19T14:54:56;9.13;;;6.32;;
2488;SDS011;1255;48.716;9.124;2023-04-19T14:57:23;8.02;;;6.25;;
2488;SDS011;1255;48.716;9.124;2023-04-19T14:59:52;9.23;;;6.55;;
2488;SDS011;1255;48.716;9.124;2023-04-19T15:02:22;8.10;;;6.25;;
2488;SDS011;1255;48.716;9.124;2023-04-19T15:04:48;7.95;;;5.55;;
2488;SDS011;1255;48.716;9.124;2023-04-19T15:07:15;7.90;;;6.32;;
2488;SDS011;1255;48.716;9.124;2023-04-19T15:09:42;7.20;;;6.13;;
2488;SDS011;1255;48.716;9.124;2023-04-19T15:12:10;8.43;;;6.15;;
2488;SDS011;1255;48.716;9.124;2023-04-19T15:14:37;7.72;;;5.75;;
2488;SDS011;1255;48.716;9.124;2023-04-19T15:17:04;6.43;;;5.13;;
2488;SDS011;1255;48.716;9.124;2023-04-19T15:19:31;9.55;;;6.57;;
2488;SDS011;1255;48.716;9.124;2023-04-19T15:21:58;8.35;;;6.00;;
2488;SDS011;1255;48.716;9.124;2023-04-19T15:24:25;8.50;;;6.30;;
2488;SDS011;1255;48.716;9.124;2023-04-19T15:26:52;9.05;;;6.65;;